createdAt,value
2022-08-30T00:00:15.498Z,100635.89
2022-08-30T00:04:40.738Z,100638.42
2022-08-30T00:08:50.268Z,100638.42
2022-08-30T00:12:58.601Z,100642.51
2022-08-30T00:17:07.159Z,100640.59
2022-08-30T00:21:15.854Z,100640.10
2022-08-30T00:25:23.790Z,100640.04
2022-08-30T00:29:31.755Z,100644.73
2022-08-30T00:33:40.455Z,100653.59
2022-08-30T00:37:48.534Z,100649.64
2022-08-30T00:41:56.332Z,100646.48
2022-08-30T00:46:04.860Z,100645.79
2022-08-30T00:50:14.653Z,100651.61
2022-08-30T00:54:23.865Z,100648.13
2022-08-30T00:58:37.514Z,100640.35
2022-08-30T01:02:45.877Z,100635.59
2022-08-30T01:06:57.099Z,100633.89
2022-08-30T01:11:05.117Z,100634.65
2022-08-30T01:15:15.912Z,100630.06
2022-08-30T01:19:37.669Z,100625.59
2022-08-30T01:23:47.836Z,100629.90
2022-08-30T01:27:59.212Z,100631.54
2022-08-30T01:32:11.940Z,100627.52
2022-08-30T01:36:22.297Z,100630.23
2022-08-30T01:40:30.599Z,100634.83
2022-08-30T01:44:38.634Z,100636.68
2022-08-30T01:48:53.052Z,100636.98
2022-08-30T01:53:02.277Z,100636.84
2022-08-30T01:57:11.743Z,100640.90
2022-08-30T02:01:22.009Z,100645.64
2022-08-30T02:05:30.218Z,100650.09
2022-08-30T02:09:39.538Z,100651.07
2022-08-30T02:13:48.814Z,100650.03
2022-08-30T02:17:56.517Z,100649.62
2022-08-30T02:22:04.425Z,100645.39
2022-08-30T02:26:13.703Z,100650.58
2022-08-30T02:30:21.554Z,100644.08
2022-08-30T02:34:29.100Z,100643.90
2022-08-30T02:38:38.088Z,100649.87
2022-08-30T02:42:45.857Z,100650.73
2022-08-30T02:46:54.686Z,100652.86
2022-08-30T02:51:11.502Z,100657.73
2022-08-30T02:55:20.209Z,100658.70
2022-08-30T02:59:28.532Z,100659.39
2022-08-30T03:03:36.728Z,100655.02
2022-08-30T03:07:47.740Z,100652.84
2022-08-30T03:11:56.232Z,100652.58
2022-08-30T03:16:04.529Z,100645.02
2022-08-30T03:20:14.251Z,100651.95
2022-08-30T03:24:22.402Z,100649.29
2022-08-30T03:28:31.058Z,100649.34
2022-08-30T03:32:38.910Z,100653.05
2022-08-30T03:36:48.769Z,100654.63
2022-08-30T03:40:57.825Z,100652.52
2022-08-30T03:45:09.147Z,100654.83
2022-08-30T03:49:19.451Z,100656.30
2022-08-30T03:53:27.185Z,100655.64
2022-08-30T03:57:36.708Z,100653.19
2022-08-30T04:01:46.356Z,100653.85
2022-08-30T04:05:55.488Z,100654.48
2022-08-30T04:10:03.122Z,100655.13
2022-08-30T04:14:11.962Z,100657.73
2022-08-30T04:18:20.087Z,100661.14
2022-08-30T04:22:27.748Z,100664.34
2022-08-30T04:26:35.469Z,100666.80
2022-08-30T04:30:44.426Z,100669.23
2022-08-30T04:34:52.241Z,100675.51
2022-08-30T04:39:01.555Z,100681.88
2022-08-30T04:43:09.558Z,100685.88
2022-08-30T04:47:18.965Z,100690.92
2022-08-30T04:51:26.782Z,100684.52
2022-08-30T04:55:38.725Z,100690.87
2022-08-30T04:59:47.858Z,100690.88
2022-08-30T05:03:56.888Z,100691.20
2022-08-30T05:08:07.406Z,100695.81
2022-08-30T05:12:17.728Z,100698.05
2022-08-30T05:16:25.312Z,100697.59
2022-08-30T05:20:33.249Z,100699.17
2022-08-30T05:24:41.201Z,100703.59
2022-08-30T05:28:49.653Z,100708.52
2022-08-30T05:33:05.658Z,100709.88
2022-08-30T05:37:15.805Z,100707.61
2022-08-30T05:41:31.992Z,100712.84
2022-08-30T05:45:43.250Z,100713.45
2022-08-30T05:49:54.180Z,100711.93
2022-08-30T05:54:10.660Z,100713.64
2022-08-30T05:58:26.050Z,100711.86
2022-08-30T06:02:36.617Z,100714.89
2022-08-30T06:06:48.130Z,100721.59
2022-08-30T06:11:00.169Z,100724.66
2022-08-30T06:15:20.021Z,100721.36
2022-08-30T06:19:30.622Z,100722.35
2022-08-30T06:23:38.626Z,100729.78
2022-08-30T06:27:46.712Z,100732.50
2022-08-30T06:31:57.906Z,100728.80
2022-08-30T06:36:11.594Z,100729.39
2022-08-30T06:40:21.912Z,100731.73
2022-08-30T06:44:29.477Z,100738.86
2022-08-30T06:48:38.210Z,100732.84
2022-08-30T06:52:48.097Z,100732.90
2022-08-30T06:57:00.140Z,100727.81
2022-08-30T07:01:17.496Z,100728.10
2022-08-30T07:05:28.021Z,100729.72
2022-08-30T07:09:43.460Z,100735.60
2022-08-30T07:13:52.622Z,100740.23
2022-08-30T07:18:17.904Z,100744.27
2022-08-30T07:22:28.370Z,100744.17
2022-08-30T07:26:37.590Z,100746.08
2022-08-30T07:30:47.803Z,100745.96
2022-08-30T07:35:00.261Z,100747.54
2022-08-30T07:39:11.044Z,100752.41
2022-08-30T07:43:19.185Z,100752.84
2022-08-30T07:47:28.098Z,100761.84
2022-08-30T07:51:37.534Z,100758.27
2022-08-30T07:55:45.774Z,100760.44
2022-08-30T07:59:54.279Z,100767.02
2022-08-30T08:04:05.187Z,100768.66
2022-08-30T08:08:22.468Z,100774.91
2022-08-30T08:12:30.284Z,100772.36
2022-08-30T08:16:42.527Z,100773.96
2022-08-30T08:20:54.804Z,100779.70
2022-08-30T08:25:10.902Z,100784.43
2022-08-30T08:29:30.309Z,100787.42
2022-08-30T08:33:39.509Z,100793.30
2022-08-30T08:37:54.726Z,100791.10
2022-08-30T08:42:10.555Z,100797.30
2022-08-30T08:46:27.380Z,100802.64
2022-08-30T08:50:38.873Z,100803.38
2022-08-30T08:55:09.546Z,100799.26
2022-08-30T08:59:21.201Z,100798.27
2022-08-30T09:03:33.349Z,100796.89
2022-08-30T09:07:48.765Z,100797.14
2022-08-30T09:12:04.353Z,100791.86
2022-08-30T09:16:22.554Z,100788.93
2022-08-30T09:20:37.669Z,100789.64
2022-08-30T09:24:51.558Z,100791.67
2022-08-30T09:29:01.067Z,100790.63
2022-08-30T09:33:20.861Z,100789.59
2022-08-30T09:37:36.467Z,100787.49
2022-08-30T09:41:45.413Z,100785.65
2022-08-30T09:46:09.250Z,100780.62
2022-08-30T09:50:18.649Z,100778.60
2022-08-30T09:54:34.122Z,100775.89
2022-08-30T09:58:57.285Z,100774.66
2022-08-30T10:03:35.362Z,100767.57
2022-08-30T10:07:50.605Z,100767.77
2022-08-30T10:12:07.776Z,100767.48
2022-08-30T10:16:27.533Z,100765.35
2022-08-30T10:20:42.004Z,100763.23
2022-08-30T10:24:52.177Z,100761.62
2022-08-30T10:29:04.186Z,100754.26
2022-08-30T10:33:16.049Z,100754.99
2022-08-30T10:37:28.183Z,100751.04
2022-08-30T10:41:41.350Z,100747.61
2022-08-30T10:45:53.636Z,100740.10
2022-08-30T10:50:11.693Z,100737.08
2022-08-30T10:54:23.429Z,100736.52
2022-08-30T10:58:33.788Z,100732.84
2022-08-30T11:03:08.660Z,100733.09
2022-08-30T11:07:27.490Z,100733.52
2022-08-30T11:11:46.643Z,100719.86
2022-08-30T11:16:03.331Z,100717.89
2022-08-30T11:20:30.025Z,100718.18
2022-08-30T11:25:09.854Z,100717.48
2022-08-30T11:29:37.058Z,100713.92
2022-08-30T11:33:47.593Z,100714.04
2022-08-30T11:37:57.548Z,100706.20
2022-08-30T11:42:15.392Z,100704.80
2022-08-30T11:46:36.336Z,100701.88
2022-08-30T11:50:54.679Z,100702.16
2022-08-30T11:55:14.023Z,100694.69
2022-08-30T11:59:30.394Z,100697.06
2022-08-30T12:03:39.121Z,100701.05
2022-08-30T12:08:01.470Z,100701.23
2022-08-30T12:12:10.847Z,100697.77
2022-08-30T12:16:21.183Z,100696.33
2022-08-30T12:20:30.986Z,100687.60
2022-08-30T12:24:44.323Z,100690.31
2022-08-30T12:28:53.048Z,100685.02
2022-08-30T12:33:01.057Z,100673.31
2022-08-30T12:37:12.052Z,100669.17
2022-08-30T12:41:23.691Z,100660.23
2022-08-30T12:45:33.689Z,100658.08
2022-08-30T12:49:46.507Z,100654.45
2022-08-30T12:53:53.959Z,100655.39
2022-08-30T12:58:05.489Z,100651.71
2022-08-30T13:02:20.114Z,100650.05
2022-08-30T13:06:45.832Z,100645.20
2022-08-30T13:10:56.872Z,100642.45
2022-08-30T13:15:19.071Z,100636.63
2022-08-30T13:19:35.270Z,100629.35
2022-08-30T13:23:43.219Z,100628.23
2022-08-30T13:27:51.594Z,100626.16
2022-08-30T13:32:02.013Z,100628.30
2022-08-30T13:36:09.938Z,100623.26
2022-08-30T13:40:19.463Z,100615.41
2022-08-30T13:44:27.579Z,100617.05
2022-08-30T13:48:35.868Z,100613.77
2022-08-30T13:52:44.177Z,100611.98
2022-08-30T13:56:53.671Z,100607.81
2022-08-30T14:01:02.313Z,100606.55
2022-08-30T14:05:30.759Z,100603.56
2022-08-30T14:09:40.766Z,100605.27
2022-08-30T14:18:19.927Z,100604.88
2022-08-30T14:22:31.757Z,100601.40
2022-08-30T14:26:44.301Z,100596.13
2022-08-30T14:30:53.528Z,100595.64
2022-08-30T14:35:01.299Z,100593.96
2022-08-30T14:39:12.200Z,100596.63
2022-08-30T14:43:20.514Z,100596.41
2022-08-30T14:47:29.727Z,100594.34
2022-08-30T14:51:38.407Z,100593.78
2022-08-30T14:55:46.646Z,100588.23
2022-08-30T14:59:55.260Z,100586.77
2022-08-30T15:08:35.995Z,100583.36
2022-08-30T15:12:44.354Z,100580.73
2022-08-30T15:16:53.485Z,100578.40
2022-08-30T15:21:01.365Z,100577.95
2022-08-30T15:25:11.246Z,100581.06
2022-08-30T15:29:20.406Z,100576.46
2022-08-30T15:33:28.428Z,100574.80
2022-08-30T15:37:37.996Z,100571.48
2022-08-30T15:41:46.746Z,100571.38
2022-08-30T15:46:18.563Z,100571.95
2022-08-30T15:50:26.735Z,100570.77
2022-08-30T15:54:35.363Z,100566.92
2022-08-30T15:58:44.517Z,100561.70
2022-08-30T16:02:53.577Z,100557.85
2022-08-30T16:07:02.782Z,100553.05
2022-08-30T16:11:13.216Z,100550.14
2022-08-30T16:15:21.764Z,100552.71
2022-08-30T16:19:33.606Z,100551.33
2022-08-30T16:23:44.152Z,100554.35
2022-08-30T16:27:53.617Z,100551.59
2022-08-30T16:32:00.985Z,100551.02
2022-08-30T16:36:10.914Z,100557.30
2022-08-30T16:40:19.165Z,100556.06
2022-08-30T16:44:29.912Z,100555.47
2022-08-30T16:48:37.984Z,100552.39
2022-08-30T16:52:49.288Z,100550.83
2022-08-30T16:56:57.274Z,100556.50
2022-08-30T17:01:05.819Z,100558.51
2022-08-30T17:05:16.214Z,100557.36
2022-08-30T17:09:23.949Z,100559.80
2022-08-30T17:13:35.489Z,100567.02
2022-08-30T17:17:44.121Z,100564.17
2022-08-30T17:21:51.698Z,100567.69
2022-08-30T17:25:59.987Z,100570.30
2022-08-30T17:30:10.935Z,100578.56
2022-08-30T17:34:19.095Z,100585.23
2022-08-30T17:38:27.737Z,100588.12
2022-08-30T17:42:35.882Z,100587.66
2022-08-30T17:46:43.961Z,100592.01
2022-08-30T17:50:59.832Z,100594.08
2022-08-30T17:55:08.951Z,100601.20
2022-08-30T17:59:24.953Z,100608.58
2022-08-30T18:03:33.722Z,100608.48
2022-08-30T18:07:41.906Z,100613.65
2022-08-30T18:11:49.548Z,100614.31
2022-08-30T18:15:57.431Z,100620.78
2022-08-30T18:20:07.602Z,100625.16
2022-08-30T18:24:15.345Z,100627.50
2022-08-30T18:28:23.970Z,100632.88
2022-08-30T18:32:36.380Z,100636.62
2022-08-30T18:36:48.051Z,100642.80
2022-08-30T18:41:00.932Z,100643.06
2022-08-30T18:45:14.928Z,100648.80
2022-08-30T18:49:24.190Z,100654.16
2022-08-30T18:53:32.388Z,100647.83
2022-08-30T18:57:43.657Z,100649.30
2022-08-30T19:01:52.129Z,100646.91
2022-08-30T19:06:00.759Z,100642.74
2022-08-30T19:10:12.432Z,100638.81
2022-08-30T19:14:21.392Z,100643.30
2022-08-30T19:18:28.951Z,100645.70
2022-08-30T19:23:06.376Z,100643.58
2022-08-30T19:27:10.693Z,100646.18
2022-08-30T19:31:18.879Z,100653.30
2022-08-30T19:39:55.680Z,100660.48
2022-08-30T19:44:17.308Z,100663.73
2022-08-30T19:48:32.091Z,100665.96
2022-08-30T19:52:41.434Z,100668.71
2022-08-30T19:56:49.649Z,100667.58
2022-08-30T20:01:00.996Z,100666.70
2022-08-30T20:05:21.308Z,100666.36
2022-08-30T20:09:29.845Z,100664.47
2022-08-30T20:13:37.831Z,100663.48
2022-08-30T20:18:06.423Z,100663.75
2022-08-30T20:22:19.824Z,100662.41
2022-08-30T20:26:33.949Z,100661.92
2022-08-30T20:30:44.355Z,100660.00
2022-08-30T20:34:53.482Z,100661.66
2022-08-30T20:39:09.689Z,100660.55
2022-08-30T20:43:18.445Z,100660.84
2022-08-30T20:47:26.944Z,100660.45
2022-08-30T20:51:34.905Z,100667.40
2022-08-30T20:55:45.513Z,100667.89
2022-08-30T20:59:53.475Z,100667.02
2022-08-30T21:04:01.573Z,100670.73
2022-08-30T21:08:10.270Z,100672.39
2022-08-30T21:12:18.199Z,100676.78
2022-08-30T21:16:26.025Z,100678.71
2022-08-30T21:20:34.445Z,100684.66
2022-08-30T21:24:48.105Z,100684.54
2022-08-30T21:28:58.187Z,100685.77
2022-08-30T21:33:07.059Z,100681.02
2022-08-30T21:37:16.508Z,100682.05
2022-08-30T21:41:24.675Z,100679.48
2022-08-30T21:45:35.403Z,100680.46
2022-08-30T21:49:43.657Z,100681.41
2022-08-30T21:53:51.514Z,100681.95
2022-08-30T21:58:00.070Z,100684.98
2022-08-30T22:02:09.244Z,100693.77
2022-08-30T22:06:17.988Z,100700.89
2022-08-30T22:10:32.414Z,100693.30
2022-08-30T22:14:41.343Z,100686.40
2022-08-30T22:18:49.890Z,100686.33
2022-08-30T22:22:58.534Z,100686.83
2022-08-30T22:27:07.441Z,100683.38
2022-08-30T22:31:17.125Z,100685.29
2022-08-30T22:35:25.821Z,100686.02
2022-08-30T22:39:33.992Z,100685.97
2022-08-30T22:43:42.726Z,100686.13
2022-08-30T22:47:50.428Z,100684.65
2022-08-30T22:51:57.866Z,100681.67
2022-08-30T22:56:12.033Z,100677.05
2022-08-30T23:00:21.413Z,100680.80
2022-08-30T23:04:41.545Z,100685.87
2022-08-30T23:08:49.476Z,100682.54
2022-08-30T23:12:58.017Z,100676.86
2022-08-30T23:17:06.756Z,100681.81
2022-08-30T23:21:16.628Z,100682.08
2022-08-30T23:25:44.457Z,100680.66
2022-08-30T23:30:09.893Z,100685.94
2022-08-30T23:34:35.359Z,100685.56
2022-08-30T23:39:02.054Z,100692.15
2022-08-30T23:43:29.932Z,100692.88
2022-08-30T23:47:55.712Z,100688.06
2022-08-30T23:52:21.107Z,100692.49
2022-08-30T23:56:46.721Z,100685.86
